sensor_id;sensor_type;location;lat;lon;timestamp;P1;durP1;ratioP1;P2;durP2;ratioP2
49123;SDS011;48506;48.202;16.274;2023-08-06T00:00:39;0.85;;;0.57;;
49123;SDS011;48506;48.202;16.274;2023-08-06T00:03:05;1.00;;;0.85;;
49123;SDS011;48506;48.202;16.274;2023-08-06T00:05:31;0.50;;;0.50;;
49123;SDS011;48506;48.202;16.274;2023-08-06T00:07:56;0.43;;;0.43;;
49123;SDS011;48506;48.202;16.274;2023-08-06T00:10:22;0.20;;;0.20;;
49123;SDS011;48506;48.202;16.274;2023-08-06T00:12:48;0.50;;;0.50;;
49123;SDS011;48506;48.202;16.274;2023-08-06T00:15:14;2.15;;;0.57;;
49123;SDS011;48506;48.202;16.274;2023-08-06T00:17:40;0.60;;;0.57;;
49123;SDS011;48506;48.202;16.274;2023-08-06T00:20:07;0.68;;;0.57;;
49123;SDS011;48506;48.202;16.274;2023-08-06T00:22:33;1.67;;;0.55;;
49123;SDS011;48506;48.202;16.274;2023-08-06T00:25:03;0.77;;;0.60;;
49123;SDS011;48506;48.202;16.274;2023-08-06T00:27:30;0.68;;;0.52;;
49123;SDS011;48506;48.202;16.274;2023-08-06T00:29:58;1.20;;;0.60;;
49123;SDS011;48506;48.202;16.274;2023-08-06T00:32:23;0.50;;;0.50;;
49123;SDS011;48506;48.202;16.274;2023-08-06T00:34:49;0.40;;;0.40;;
49123;SDS011;48506;48.202;16.274;2023-08-06T00:37:18;1.58;;;0.60;;
49123;SDS011;48506;48.202;16.274;2023-08-06T00:39:44;0.80;;;0.52;;
49123;SDS011;48506;48.202;16.274;2023-08-06T00:42:10;0.60;;;0.60;;
49123;SDS011;48506;48.202;16.274;2023-08-06T00:44:37;0.98;;;0.70;;
49123;SDS011;48506;48.202;16.274;2023-08-06T00:47:04;0.93;;;0.60;;
49123;SDS011;48506;48.202;16.274;2023-08-06T00:49:31;0.63;;;0.55;;
49123;SDS011;48506;48.202;16.274;2023-08-06T00:51:57;0.73;;;0.50;;
49123;SDS011;48506;48.202;16.274;2023-08-06T00:54:23;0.93;;;0.60;;
49123;SDS011;48506;48.202;16.274;2023-08-06T00:56:51;1.58;;;0.80;;
49123;SDS011;48506;48.202;16.274;2023-08-06T00:59:18;0.57;;;0.57;;
49123;SDS011;48506;48.202;16.274;2023-08-06T01:01:45;0.80;;;0.50;;
49123;SDS011;48506;48.202;16.274;2023-08-06T01:04:11;0.93;;;0.80;;
49123;SDS011;48506;48.202;16.274;2023-08-06T01:06:48;1.48;;;0.50;;
49123;SDS011;48506;48.202;16.274;2023-08-06T01:17:30;0.50;;;0.50;;
49123;SDS011;48506;48.202;16.274;2023-08-06T01:19:57;0.80;;;0.50;;
49123;SDS011;48506;48.202;16.274;2023-08-06T01:22:23;0.98;;;0.50;;
49123;SDS011;48506;48.202;16.274;2023-08-06T01:24:49;0.93;;;0.40;;
49123;SDS011;48506;48.202;16.274;2023-08-06T01:29:55;0.75;;;0.55;;
49123;SDS011;48506;48.202;16.274;2023-08-06T01:32:28;0.60;;;0.40;;
49123;SDS011;48506;48.202;16.274;2023-08-06T01:34:57;0.60;;;0.60;;
49123;SDS011;48506;48.202;16.274;2023-08-06T01:37:25;0.70;;;0.60;;
49123;SDS011;48506;48.202;16.274;2023-08-06T01:39:51;1.27;;;0.60;;
49123;SDS011;48506;48.202;16.274;2023-08-06T01:42:17;1.73;;;0.47;;
49123;SDS011;48506;48.202;16.274;2023-08-06T01:44:43;1.10;;;0.50;;
49123;SDS011;48506;48.202;16.274;2023-08-06T01:47:09;0.70;;;0.70;;
49123;SDS011;48506;48.202;16.274;2023-08-06T01:49:36;1.27;;;0.90;;
49123;SDS011;48506;48.202;16.274;2023-08-06T01:52:02;1.08;;;0.93;;
49123;SDS011;48506;48.202;16.274;2023-08-06T01:54:28;0.70;;;0.70;;
49123;SDS011;48506;48.202;16.274;2023-08-06T01:56:54;0.70;;;0.70;;
49123;SDS011;48506;48.202;16.274;2023-08-06T01:59:20;0.98;;;0.93;;
49123;SDS011;48506;48.202;16.274;2023-08-06T02:01:46;3.08;;;0.80;;
49123;SDS011;48506;48.202;16.274;2023-08-06T02:04:12;1.80;;;1.10;;
49123;SDS011;48506;48.202;16.274;2023-08-06T02:06:38;1.20;;;1.10;;
49123;SDS011;48506;48.202;16.274;2023-08-06T02:09:04;1.30;;;1.15;;
49123;SDS011;48506;48.202;16.274;2023-08-06T02:11:30;1.85;;;1.30;;
49123;SDS011;48506;48.202;16.274;2023-08-06T02:13:55;0.82;;;0.82;;
49123;SDS011;48506;48.202;16.274;2023-08-06T02:16:21;1.27;;;1.17;;
49123;SDS011;48506;48.202;16.274;2023-08-06T02:18:47;2.63;;;1.10;;
49123;SDS011;48506;48.202;16.274;2023-08-06T02:21:13;1.83;;;1.30;;
49123;SDS011;48506;48.202;16.274;2023-08-06T02:23:39;1.88;;;1.15;;
49123;SDS011;48506;48.202;16.274;2023-08-06T02:26:05;1.30;;;0.95;;
49123;SDS011;48506;48.202;16.274;2023-08-06T02:28:31;1.23;;;1.10;;
49123;SDS011;48506;48.202;16.274;2023-08-06T02:30:57;1.10;;;1.00;;
49123;SDS011;48506;48.202;16.274;2023-08-06T02:33:23;1.45;;;1.25;;
49123;SDS011;48506;48.202;16.274;2023-08-06T02:35:49;1.23;;;1.13;;
49123;SDS011;48506;48.202;16.274;2023-08-06T02:38:16;2.72;;;1.40;;
49123;SDS011;48506;48.202;16.274;2023-08-06T02:40:47;1.65;;;1.48;;
49123;SDS011;48506;48.202;16.274;2023-08-06T02:43:13;1.67;;;1.30;;
49123;SDS011;48506;48.202;16.274;2023-08-06T02:45:39;1.63;;;1.10;;
49123;SDS011;48506;48.202;16.274;2023-08-06T02:48:05;2.15;;;1.70;;
49123;SDS011;48506;48.202;16.274;2023-08-06T02:50:37;1.45;;;1.25;;
49123;SDS011;48506;48.202;16.274;2023-08-06T02:53:06;3.03;;;1.48;;
49123;SDS011;48506;48.202;16.274;2023-08-06T02:55:33;2.25;;;1.73;;
49123;SDS011;48506;48.202;16.274;2023-08-06T02:58:00;1.52;;;1.15;;
49123;SDS011;48506;48.202;16.274;2023-08-06T03:00:27;1.55;;;1.27;;
49123;SDS011;48506;48.202;16.274;2023-08-06T03:02:53;1.83;;;1.40;;
49123;SDS011;48506;48.202;16.274;2023-08-06T03:05:19;1.58;;;1.48;;
49123;SDS011;48506;48.202;16.274;2023-08-06T03:07:45;1.70;;;1.20;;
49123;SDS011;48506;48.202;16.274;2023-08-06T03:10:11;3.67;;;1.67;;
49123;SDS011;48506;48.202;16.274;2023-08-06T03:12:38;2.17;;;1.98;;
49123;SDS011;48506;48.202;16.274;2023-08-06T03:15:05;2.58;;;2.20;;
49123;SDS011;48506;48.202;16.274;2023-08-06T03:17:31;4.88;;;1.90;;
49123;SDS011;48506;48.202;16.274;2023-08-06T03:19:57;2.00;;;1.90;;
49123;SDS011;48506;48.202;16.274;2023-08-06T03:22:23;2.30;;;2.10;;
49123;SDS011;48506;48.202;16.274;2023-08-06T03:24:50;3.00;;;2.40;;
49123;SDS011;48506;48.202;16.274;2023-08-06T03:27:17;4.63;;;2.67;;
49123;SDS011;48506;48.202;16.274;2023-08-06T03:29:42;3.42;;;2.92;;
49123;SDS011;48506;48.202;16.274;2023-08-06T03:32:08;3.28;;;2.60;;
49123;SDS011;48506;48.202;16.274;2023-08-06T03:34:34;3.40;;;2.67;;
49123;SDS011;48506;48.202;16.274;2023-08-06T03:37:00;3.08;;;2.35;;
49123;SDS011;48506;48.202;16.274;2023-08-06T03:39:26;2.65;;;2.30;;
49123;SDS011;48506;48.202;16.274;2023-08-06T03:41:52;3.28;;;2.97;;
49123;SDS011;48506;48.202;16.274;2023-08-06T03:44:18;2.75;;;2.55;;
49123;SDS011;48506;48.202;16.274;2023-08-06T03:46:43;3.47;;;3.17;;
49123;SDS011;48506;48.202;16.274;2023-08-06T03:49:09;3.50;;;3.20;;
49123;SDS011;48506;48.202;16.274;2023-08-06T03:51:35;4.57;;;3.33;;
49123;SDS011;48506;48.202;16.274;2023-08-06T03:54:01;4.95;;;3.15;;
49123;SDS011;48506;48.202;16.274;2023-08-06T03:56:27;3.97;;;3.35;;
49123;SDS011;48506;48.202;16.274;2023-08-06T03:58:53;4.95;;;3.88;;
49123;SDS011;48506;48.202;16.274;2023-08-06T04:01:19;4.57;;;3.95;;
49123;SDS011;48506;48.202;16.274;2023-08-06T04:03:45;3.97;;;3.58;;
49123;SDS011;48506;48.202;16.274;2023-08-06T04:06:11;4.32;;;3.90;;
49123;SDS011;48506;48.202;16.274;2023-08-06T04:08:37;4.07;;;3.67;;
49123;SDS011;48506;48.202;16.274;2023-08-06T04:11:03;3.92;;;3.30;;
49123;SDS011;48506;48.202;16.274;2023-08-06T04:13:29;3.70;;;3.28;;
49123;SDS011;48506;48.202;16.274;2023-08-06T04:15:55;3.85;;;3.55;;
49123;SDS011;48506;48.202;16.274;2023-08-06T04:18:26;4.53;;;3.28;;
49123;SDS011;48506;48.202;16.274;2023-08-06T04:20:51;3.67;;;3.10;;
49123;SDS011;48506;48.202;16.274;2023-08-06T04:23:20;3.53;;;3.22;;
49123;SDS011;48506;48.202;16.274;2023-08-06T04:25:46;3.75;;;3.13;;
49123;SDS011;48506;48.202;16.274;2023-08-06T04:28:12;4.32;;;3.90;;
49123;SDS011;48506;48.202;16.274;2023-08-06T04:30:38;4.30;;;3.15;;
49123;SDS011;48506;48.202;16.274;2023-08-06T04:33:04;4.03;;;3.00;;
49123;SDS011;48506;48.202;16.274;2023-08-06T04:35:30;4.22;;;2.83;;
49123;SDS011;48506;48.202;16.274;2023-08-06T04:37:57;3.47;;;2.85;;
49123;SDS011;48506;48.202;16.274;2023-08-06T04:40:23;3.55;;;3.25;;
49123;SDS011;48506;48.202;16.274;2023-08-06T04:42:49;3.63;;;3.10;;
49123;SDS011;48506;48.202;16.274;2023-08-06T04:45:15;2.90;;;2.60;;
49123;SDS011;48506;48.202;16.274;2023-08-06T04:47:41;3.17;;;2.80;;
49123;SDS011;48506;48.202;16.274;2023-08-06T04:50:07;6.07;;;3.63;;
49123;SDS011;48506;48.202;16.274;2023-08-06T04:52:34;4.00;;;3.20;;
49123;SDS011;48506;48.202;16.274;2023-08-06T04:55:00;4.30;;;2.90;;
49123;SDS011;48506;48.202;16.274;2023-08-06T04:57:26;3.85;;;3.30;;
49123;SDS011;48506;48.202;16.274;2023-08-06T04:59:51;3.55;;;2.92;;
49123;SDS011;48506;48.202;16.274;2023-08-06T05:02:17;2.97;;;2.63;;
49123;SDS011;48506;48.202;16.274;2023-08-06T05:04:43;3.40;;;3.05;;
49123;SDS011;48506;48.202;16.274;2023-08-06T05:07:10;4.80;;;2.60;;
49123;SDS011;48506;48.202;16.274;2023-08-06T05:09:36;3.20;;;2.75;;
49123;SDS011;48506;48.202;16.274;2023-08-06T05:12:03;3.75;;;3.33;;
49123;SDS011;48506;48.202;16.274;2023-08-06T05:14:29;2.80;;;2.60;;
49123;SDS011;48506;48.202;16.274;2023-08-06T05:16:55;3.22;;;2.80;;
49123;SDS011;48506;48.202;16.274;2023-08-06T05:19:21;3.83;;;2.80;;
49123;SDS011;48506;48.202;16.274;2023-08-06T05:21:47;3.65;;;2.97;;
49123;SDS011;48506;48.202;16.274;2023-08-06T05:24:13;2.80;;;2.50;;
49123;SDS011;48506;48.202;16.274;2023-08-06T05:26:39;2.88;;;2.60;;
49123;SDS011;48506;48.202;16.274;2023-08-06T05:29:05;2.90;;;2.47;;
49123;SDS011;48506;48.202;16.274;2023-08-06T05:31:31;3.13;;;2.38;;
49123;SDS011;48506;48.202;16.274;2023-08-06T05:33:57;2.97;;;2.70;;
49123;SDS011;48506;48.202;16.274;2023-08-06T05:36:23;3.28;;;2.90;;
49123;SDS011;48506;48.202;16.274;2023-08-06T05:38:49;3.67;;;2.45;;
49123;SDS011;48506;48.202;16.274;2023-08-06T05:41:15;2.38;;;2.08;;
49123;SDS011;48506;48.202;16.274;2023-08-06T05:43:41;6.07;;;2.90;;
49123;SDS011;48506;48.202;16.274;2023-08-06T05:46:06;3.10;;;2.80;;
49123;SDS011;48506;48.202;16.274;2023-08-06T05:48:32;3.60;;;2.97;;
49123;SDS011;48506;48.202;16.274;2023-08-06T05:50:58;2.67;;;2.28;;
49123;SDS011;48506;48.202;16.274;2023-08-06T05:53:24;2.85;;;2.45;;
49123;SDS011;48506;48.202;16.274;2023-08-06T05:55:50;2.63;;;2.38;;
49123;SDS011;48506;48.202;16.274;2023-08-06T05:58:16;3.00;;;2.70;;
49123;SDS011;48506;48.202;16.274;2023-08-06T06:00:42;3.15;;;2.72;;
49123;SDS011;48506;48.202;16.274;2023-08-06T06:03:08;6.20;;;3.33;;
49123;SDS011;48506;48.202;16.274;2023-08-06T06:05:37;2.90;;;2.60;;
49123;SDS011;48506;48.202;16.274;2023-08-06T06:08:04;2.92;;;2.67;;
49123;SDS011;48506;48.202;16.274;2023-08-06T06:10:31;2.45;;;2.22;;
49123;SDS011;48506;48.202;16.274;2023-08-06T06:12:57;2.33;;;2.15;;
49123;SDS011;48506;48.202;16.274;2023-08-06T06:15:23;2.42;;;2.00;;
49123;SDS011;48506;48.202;16.274;2023-08-06T06:17:49;3.05;;;2.00;;
49123;SDS011;48506;48.202;16.274;2023-08-06T06:20:15;3.00;;;2.17;;
49123;SDS011;48506;48.202;16.274;2023-08-06T06:22:41;2.15;;;1.95;;
49123;SDS011;48506;48.202;16.274;2023-08-06T06:25:07;2.70;;;2.50;;
49123;SDS011;48506;48.202;16.274;2023-08-06T06:27:33;2.75;;;2.55;;
49123;SDS011;48506;48.202;16.274;2023-08-06T06:29:59;2.58;;;1.92;;
49123;SDS011;48506;48.202;16.274;2023-08-06T06:32:25;2.65;;;2.45;;
49123;SDS011;48506;48.202;16.274;2023-08-06T06:34:51;3.33;;;2.45;;
49123;SDS011;48506;48.202;16.274;2023-08-06T06:37:17;2.47;;;2.17;;
49123;SDS011;48506;48.202;16.274;2023-08-06T06:39:43;2.88;;;2.58;;
49123;SDS011;48506;48.202;16.274;2023-08-06T06:42:09;4.00;;;2.85;;
49123;SDS011;48506;48.202;16.274;2023-08-06T06:44:36;3.13;;;2.47;;
49123;SDS011;48506;48.202;16.274;2023-08-06T06:47:02;4.07;;;2.90;;
49123;SDS011;48506;48.202;16.274;2023-08-06T06:49:28;3.08;;;2.80;;
49123;SDS011;48506;48.202;16.274;2023-08-06T06:51:54;3.45;;;2.50;;
49123;SDS011;48506;48.202;16.274;2023-08-06T06:54:20;3.25;;;2.95;;
49123;SDS011;48506;48.202;16.274;2023-08-06T06:56:46;2.95;;;2.40;;
49123;SDS011;48506;48.202;16.274;2023-08-06T06:59:12;2.67;;;2.10;;
49123;SDS011;48506;48.202;16.274;2023-08-06T07:01:38;2.60;;;2.40;;
49123;SDS011;48506;48.202;16.274;2023-08-06T07:04:04;2.80;;;2.50;;
49123;SDS011;48506;48.202;16.274;2023-08-06T07:06:30;2.38;;;2.15;;
49123;SDS011;48506;48.202;16.274;2023-08-06T07:08:56;2.80;;;2.25;;
49123;SDS011;48506;48.202;16.274;2023-08-06T07:11:22;2.92;;;2.40;;
49123;SDS011;48506;48.202;16.274;2023-08-06T07:13:49;3.20;;;2.22;;
49123;SDS011;48506;48.202;16.274;2023-08-06T07:16:21;2.90;;;2.58;;
49123;SDS011;48506;48.202;16.274;2023-08-06T07:18:48;3.92;;;2.60;;
49123;SDS011;48506;48.202;16.274;2023-08-06T07:21:13;2.30;;;2.10;;
49123;SDS011;48506;48.202;16.274;2023-08-06T07:23:39;2.65;;;2.15;;
49123;SDS011;48506;48.202;16.274;2023-08-06T07:26:06;3.95;;;2.70;;
49123;SDS011;48506;48.202;16.274;2023-08-06T07:28:32;2.50;;;2.30;;
49123;SDS011;48506;48.202;16.274;2023-08-06T07:30:58;2.90;;;2.50;;
49123;SDS011;48506;48.202;16.274;2023-08-06T07:33:23;2.33;;;2.10;;
49123;SDS011;48506;48.202;16.274;2023-08-06T07:35:49;2.47;;;2.22;;
49123;SDS011;48506;48.202;16.274;2023-08-06T07:38:15;2.55;;;2.35;;
49123;SDS011;48506;48.202;16.274;2023-08-06T07:40:41;2.80;;;2.47;;
49123;SDS011;48506;48.202;16.274;2023-08-06T07:43:07;3.92;;;2.65;;
49123;SDS011;48506;48.202;16.274;2023-08-06T07:45:34;3.97;;;2.40;;
49123;SDS011;48506;48.202;16.274;2023-08-06T07:48:01;2.20;;;2.00;;
49123;SDS011;48506;48.202;16.274;2023-08-06T07:50:27;3.03;;;2.45;;
49123;SDS011;48506;48.202;16.274;2023-08-06T07:52:53;2.40;;;2.20;;
49123;SDS011;48506;48.202;16.274;2023-08-06T07:55:19;2.10;;;1.90;;
49123;SDS011;48506;48.202;16.274;2023-08-06T07:57:45;2.22;;;2.03;;
49123;SDS011;48506;48.202;16.274;2023-08-06T08:00:12;2.53;;;2.22;;
49123;SDS011;48506;48.202;16.274;2023-08-06T08:02:38;2.35;;;2.15;;
49123;SDS011;48506;48.202;16.274;2023-08-06T08:05:04;3.45;;;1.77;;
49123;SDS011;48506;48.202;16.274;2023-08-06T08:07:32;2.60;;;2.40;;
49123;SDS011;48506;48.202;16.274;2023-08-06T08:09:58;2.47;;;2.15;;
49123;SDS011;48506;48.202;16.274;2023-08-06T08:12:24;2.58;;;2.33;;
49123;SDS011;48506;48.202;16.274;2023-08-06T08:14:50;2.03;;;1.88;;
49123;SDS011;48506;48.202;16.274;2023-08-06T08:17:16;2.83;;;2.38;;
49123;SDS011;48506;48.202;16.274;2023-08-06T08:19:43;4.32;;;2.30;;
49123;SDS011;48506;48.202;16.274;2023-08-06T08:22:09;2.50;;;2.10;;
49123;SDS011;48506;48.202;16.274;2023-08-06T08:24:35;3.35;;;2.45;;
49123;SDS011;48506;48.202;16.274;2023-08-06T08:27:01;2.70;;;2.35;;
49123;SDS011;48506;48.202;16.274;2023-08-06T08:29:26;2.85;;;2.38;;
49123;SDS011;48506;48.202;16.274;2023-08-06T08:31:52;3.30;;;2.45;;
49123;SDS011;48506;48.202;16.274;2023-08-06T08:34:18;2.85;;;2.58;;
49123;SDS011;48506;48.202;16.274;2023-08-06T08:36:44;3.03;;;2.40;;
49123;SDS011;48506;48.202;16.274;2023-08-06T08:39:15;3.47;;;3.17;;
49123;SDS011;48506;48.202;16.274;2023-08-06T08:41:41;3.55;;;2.75;;
49123;SDS011;48506;48.202;16.274;2023-08-06T08:44:08;3.17;;;2.88;;
49123;SDS011;48506;48.202;16.274;2023-08-06T08:46:36;3.10;;;2.80;;
49123;SDS011;48506;48.202;16.274;2023-08-06T08:49:06;3.05;;;2.42;;
49123;SDS011;48506;48.202;16.274;2023-08-06T08:51:35;6.10;;;3.03;;
49123;SDS011;48506;48.202;16.274;2023-08-06T08:54:04;3.27;;;2.73;;
49123;SDS011;48506;48.202;16.274;2023-08-06T08:56:34;3.47;;;2.08;;
49123;SDS011;48506;48.202;16.274;2023-08-06T08:59:00;4.00;;;2.90;;
49123;SDS011;48506;48.202;16.274;2023-08-06T09:01:26;4.35;;;2.60;;
49123;SDS011;48506;48.202;16.274;2023-08-06T09:03:54;2.97;;;2.40;;
49123;SDS011;48506;48.202;16.274;2023-08-06T09:06:21;3.72;;;2.40;;
49123;SDS011;48506;48.202;16.274;2023-08-06T09:09:12;3.40;;;2.78;;
49123;SDS011;48506;48.202;16.274;2023-08-06T09:11:43;4.88;;;3.15;;
49123;SDS011;48506;48.202;16.274;2023-08-06T09:14:10;3.88;;;3.20;;
49123;SDS011;48506;48.202;16.274;2023-08-06T09:16:37;3.40;;;3.10;;
49123;SDS011;48506;48.202;16.274;2023-08-06T09:19:10;3.17;;;2.88;;
49123;SDS011;48506;48.202;16.274;2023-08-06T09:21:41;5.25;;;3.55;;
49123;SDS011;48506;48.202;16.274;2023-08-06T09:24:11;4.07;;;3.67;;
49123;SDS011;48506;48.202;16.274;2023-08-06T09:26:38;4.20;;;3.53;;
49123;SDS011;48506;48.202;16.274;2023-08-06T09:29:06;4.88;;;3.63;;
49123;SDS011;48506;48.202;16.274;2023-08-06T09:31:34;4.55;;;4.15;;
49123;SDS011;48506;48.202;16.274;2023-08-06T09:34:24;4.47;;;4.07;;
49123;SDS011;48506;48.202;16.274;2023-08-06T09:36:50;4.65;;;3.95;;
49123;SDS011;48506;48.202;16.274;2023-08-06T09:39:19;5.28;;;3.75;;
49123;SDS011;48506;48.202;16.274;2023-08-06T09:41:59;5.65;;;4.25;;
49123;SDS011;48506;48.202;16.274;2023-08-06T09:44:27;4.75;;;3.65;;
49123;SDS011;48506;48.202;16.274;2023-08-06T09:46:57;6.22;;;4.63;;
49123;SDS011;48506;48.202;16.274;2023-08-06T09:49:25;5.18;;;4.63;;
49123;SDS011;48506;48.202;16.274;2023-08-06T09:51:53;4.78;;;4.32;;
49123;SDS011;48506;48.202;16.274;2023-08-06T09:54:24;4.95;;;4.55;;
49123;SDS011;48506;48.202;16.274;2023-08-06T09:56:52;4.65;;;4.15;;
49123;SDS011;48506;48.202;16.274;2023-08-06T09:59:19;4.50;;;4.10;;
49123;SDS011;48506;48.202;16.274;2023-08-06T10:01:46;5.22;;;4.57;;
49123;SDS011;48506;48.202;16.274;2023-08-06T10:04:14;4.43;;;3.55;;
49123;SDS011;48506;48.202;16.274;2023-08-06T10:06:46;5.13;;;4.13;;
49123;SDS011;48506;48.202;16.274;2023-08-06T10:09:16;5.45;;;4.18;;
49123;SDS011;48506;48.202;16.274;2023-08-06T10:11:43;4.57;;;4.15;;
49123;SDS011;48506;48.202;16.274;2023-08-06T10:14:27;5.63;;;3.97;;
49123;SDS011;48506;48.202;16.274;2023-08-06T10:16:58;5.45;;;4.00;;
49123;SDS011;48506;48.202;16.274;2023-08-06T10:19:25;5.05;;;4.10;;
49123;SDS011;48506;48.202;16.274;2023-08-06T10:22:08;3.88;;;3.58;;
49123;SDS011;48506;48.202;16.274;2023-08-06T10:30:28;3.50;;;3.20;;
49123;SDS011;48506;48.202;16.274;2023-08-06T10:35:47;4.13;;;3.78;;
49123;SDS011;48506;48.202;16.274;2023-08-06T10:38:21;11.77;;;6.82;;
49123;SDS011;48506;48.202;16.274;2023-08-06T10:45:53;5.60;;;3.53;;
49123;SDS011;48506;48.202;16.274;2023-08-06T10:48:35;5.07;;;3.85;;
49123;SDS011;48506;48.202;16.274;2023-08-06T10:51:02;5.78;;;3.67;;
49123;SDS011;48506;48.202;16.274;2023-08-06T10:53:30;6.85;;;3.92;;
49123;SDS011;48506;48.202;16.274;2023-08-06T10:55:56;5.38;;;3.13;;
49123;SDS011;48506;48.202;16.274;2023-08-06T10:58:23;3.78;;;2.90;;
49123;SDS011;48506;48.202;16.274;2023-08-06T11:00:49;4.28;;;3.80;;
49123;SDS011;48506;48.202;16.274;2023-08-06T11:03:15;4.82;;;2.95;;
49123;SDS011;48506;48.202;16.274;2023-08-06T11:05:48;3.60;;;3.30;;
49123;SDS011;48506;48.202;16.274;2023-08-06T11:08:27;3.78;;;3.25;;
49123;SDS011;48506;48.202;16.274;2023-08-06T11:10:56;4.38;;;3.35;;
49123;SDS011;48506;48.202;16.274;2023-08-06T11:13:44;3.15;;;2.85;;
49123;SDS011;48506;48.202;16.274;2023-08-06T11:16:19;4.40;;;3.22;;
49123;SDS011;48506;48.202;16.274;2023-08-06T11:18:51;3.40;;;2.63;;
49123;SDS011;48506;48.202;16.274;2023-08-06T11:21:19;3.22;;;2.60;;
49123;SDS011;48506;48.202;16.274;2023-08-06T11:23:46;6.32;;;2.75;;
49123;SDS011;48506;48.202;16.274;2023-08-06T11:26:12;3.60;;;3.00;;
49123;SDS011;48506;48.202;16.274;2023-08-06T11:28:43;3.72;;;3.15;;
49123;SDS011;48506;48.202;16.274;2023-08-06T11:31:18;4.28;;;3.53;;
49123;SDS011;48506;48.202;16.274;2023-08-06T11:33:45;3.83;;;3.40;;
49123;SDS011;48506;48.202;16.274;2023-08-06T11:36:11;3.03;;;2.80;;
49123;SDS011;48506;48.202;16.274;2023-08-06T11:38:38;3.58;;;3.28;;
49123;SDS011;48506;48.202;16.274;2023-08-06T11:41:04;3.92;;;3.10;;
49123;SDS011;48506;48.202;16.274;2023-08-06T11:43:32;3.17;;;2.88;;
49123;SDS011;48506;48.202;16.274;2023-08-06T11:45:58;5.20;;;3.60;;
49123;SDS011;48506;48.202;16.274;2023-08-06T11:48:25;4.95;;;3.47;;
49123;SDS011;48506;48.202;16.274;2023-08-06T11:50:53;5.15;;;3.97;;
49123;SDS011;48506;48.202;16.274;2023-08-06T11:53:26;10.32;;;4.25;;
49123;SDS011;48506;48.202;16.274;2023-08-06T11:55:53;4.30;;;3.90;;
49123;SDS011;48506;48.202;16.274;2023-08-06T11:58:19;4.28;;;3.72;;
49123;SDS011;48506;48.202;16.274;2023-08-06T12:00:45;4.55;;;3.83;;
49123;SDS011;48506;48.202;16.274;2023-08-06T12:03:11;5.97;;;4.00;;
49123;SDS011;48506;48.202;16.274;2023-08-06T12:05:37;4.47;;;4.00;;
49123;SDS011;48506;48.202;16.274;2023-08-06T12:08:04;4.18;;;3.45;;
49123;SDS011;48506;48.202;16.274;2023-08-06T12:10:31;4.65;;;3.40;;
49123;SDS011;48506;48.202;16.274;2023-08-06T12:12:57;6.85;;;4.20;;
49123;SDS011;48506;48.202;16.274;2023-08-06T12:15:23;4.18;;;3.53;;
49123;SDS011;48506;48.202;16.274;2023-08-06T12:17:50;7.50;;;3.42;;
49123;SDS011;48506;48.202;16.274;2023-08-06T12:20:16;4.97;;;3.67;;
49123;SDS011;48506;48.202;16.274;2023-08-06T12:22:42;4.50;;;4.07;;
49123;SDS011;48506;48.202;16.274;2023-08-06T12:25:09;4.70;;;3.83;;
49123;SDS011;48506;48.202;16.274;2023-08-06T12:27:43;4.60;;;3.55;;
49123;SDS011;48506;48.202;16.274;2023-08-06T12:30:10;6.65;;;4.75;;
49123;SDS011;48506;48.202;16.274;2023-08-06T12:32:38;4.22;;;3.83;;
49123;SDS011;48506;48.202;16.274;2023-08-06T12:35:04;5.35;;;4.10;;
49123;SDS011;48506;48.202;16.274;2023-08-06T12:37:32;4.75;;;3.80;;
49123;SDS011;48506;48.202;16.274;2023-08-06T12:39:59;5.85;;;3.97;;
49123;SDS011;48506;48.202;16.274;2023-08-06T12:42:25;5.80;;;4.07;;
49123;SDS011;48506;48.202;16.274;2023-08-06T12:44:51;6.63;;;4.55;;
49123;SDS011;48506;48.202;16.274;2023-08-06T12:47:17;6.28;;;4.25;;
49123;SDS011;48506;48.202;16.274;2023-08-06T12:49:45;4.88;;;3.90;;
49123;SDS011;48506;48.202;16.274;2023-08-06T12:52:11;5.82;;;3.78;;
49123;SDS011;48506;48.202;16.274;2023-08-06T12:54:40;5.60;;;4.20;;
49123;SDS011;48506;48.202;16.274;2023-08-06T12:57:06;6.28;;;4.20;;
49123;SDS011;48506;48.202;16.274;2023-08-06T12:59:33;3.95;;;3.47;;
49123;SDS011;48506;48.202;16.274;2023-08-06T13:02:02;4.13;;;3.67;;
49123;SDS011;48506;48.202;16.274;2023-08-06T13:04:29;4.18;;;3.45;;
49123;SDS011;48506;48.202;16.274;2023-08-06T13:06:56;5.03;;;3.47;;
49123;SDS011;48506;48.202;16.274;2023-08-06T13:09:22;4.60;;;3.38;;
49123;SDS011;48506;48.202;16.274;2023-08-06T13:11:50;4.78;;;3.25;;
49123;SDS011;48506;48.202;16.274;2023-08-06T13:14:16;4.00;;;3.47;;
49123;SDS011;48506;48.202;16.274;2023-08-06T13:16:43;5.80;;;3.70;;
49123;SDS011;48506;48.202;16.274;2023-08-06T13:19:10;5.45;;;3.72;;
49123;SDS011;48506;48.202;16.274;2023-08-06T13:24:15;4.25;;;3.15;;
49123;SDS011;48506;48.202;16.274;2023-08-06T13:26:42;4.50;;;3.38;;
49123;SDS011;48506;48.202;16.274;2023-08-06T13:29:08;5.90;;;3.35;;
49123;SDS011;48506;48.202;16.274;2023-08-06T13:31:36;4.53;;;3.63;;
49123;SDS011;48506;48.202;16.274;2023-08-06T13:34:03;5.75;;;4.00;;
49123;SDS011;48506;48.202;16.274;2023-08-06T13:36:30;4.80;;;3.17;;
49123;SDS011;48506;48.202;16.274;2023-08-06T13:38:57;3.17;;;2.67;;
49123;SDS011;48506;48.202;16.274;2023-08-06T13:41:23;4.78;;;3.10;;
49123;SDS011;48506;48.202;16.274;2023-08-06T13:43:49;8.32;;;4.45;;
49123;SDS011;48506;48.202;16.274;2023-08-06T13:46:17;5.35;;;3.60;;
49123;SDS011;48506;48.202;16.274;2023-08-06T13:48:46;2.90;;;2.60;;
49123;SDS011;48506;48.202;16.274;2023-08-06T13:51:19;3.28;;;2.40;;
49123;SDS011;48506;48.202;16.274;2023-08-06T13:53:45;5.05;;;3.75;;
49123;SDS011;48506;48.202;16.274;2023-08-06T13:56:12;2.72;;;2.50;;
49123;SDS011;48506;48.202;16.274;2023-08-06T13:58:43;2.50;;;2.00;;
49123;SDS011;48506;48.202;16.274;2023-08-06T14:01:13;7.38;;;2.30;;
49123;SDS011;48506;48.202;16.274;2023-08-06T14:03:43;3.50;;;1.60;;
49123;SDS011;48506;48.202;16.274;2023-08-06T14:06:09;3.13;;;1.98;;
49123;SDS011;48506;48.202;16.274;2023-08-06T14:08:35;3.08;;;1.92;;
49123;SDS011;48506;48.202;16.274;2023-08-06T14:11:02;2.65;;;1.02;;
49123;SDS011;48506;48.202;16.274;2023-08-06T14:13:31;2.22;;;1.35;;
49123;SDS011;48506;48.202;16.274;2023-08-06T14:15:57;3.00;;;1.00;;
49123;SDS011;48506;48.202;16.274;2023-08-06T14:18:24;2.67;;;0.70;;
49123;SDS011;48506;48.202;16.274;2023-08-06T14:20:51;2.10;;;1.02;;
49123;SDS011;48506;48.202;16.274;2023-08-06T14:23:17;1.48;;;0.88;;
49123;SDS011;48506;48.202;16.274;2023-08-06T14:25:44;1.58;;;0.90;;
49123;SDS011;48506;48.202;16.274;2023-08-06T14:28:11;2.50;;;1.00;;
49123;SDS011;48506;48.202;16.274;2023-08-06T14:30:38;1.67;;;0.85;;
49123;SDS011;48506;48.202;16.274;2023-08-06T14:33:04;3.38;;;1.20;;
49123;SDS011;48506;48.202;16.274;2023-08-06T14:35:31;1.13;;;0.82;;
49123;SDS011;48506;48.202;16.274;2023-08-06T14:37:58;6.57;;;0.80;;
49123;SDS011;48506;48.202;16.274;2023-08-06T14:40:25;3.40;;;0.77;;
49123;SDS011;48506;48.202;16.274;2023-08-06T14:42:54;0.88;;;0.60;;
49123;SDS011;48506;48.202;16.274;2023-08-06T14:45:20;1.50;;;0.52;;
49123;SDS011;48506;48.202;16.274;2023-08-06T14:47:46;2.58;;;0.73;;
49123;SDS011;48506;48.202;16.274;2023-08-06T14:50:13;2.80;;;1.00;;
49123;SDS011;48506;48.202;16.274;2023-08-06T14:52:40;0.75;;;0.50;;
49123;SDS011;48506;48.202;16.274;2023-08-06T14:55:06;1.35;;;0.65;;
49123;SDS011;48506;48.202;16.274;2023-08-06T14:57:34;1.60;;;0.90;;
49123;SDS011;48506;48.202;16.274;2023-08-06T15:00:00;3.33;;;1.38;;